createdAt,value
2024-01-17T00:02:43.869Z,-4.08
2024-01-17T00:05:40.969Z,-4.56
2024-01-17T00:08:37.893Z,-4.59
2024-01-17T00:11:35.008Z,-4.55
2024-01-17T00:14:32.439Z,-4.17
2024-01-17T00:17:29.612Z,-4.19
2024-01-17T00:20:26.576Z,-4.55
2024-01-17T00:23:23.401Z,-4.57
2024-01-17T00:26:20.259Z,-4.70
2024-01-17T00:29:17.190Z,-4.83
2024-01-17T00:32:14.662Z,-5.08
2024-01-17T00:35:11.685Z,-4.90
2024-01-17T00:38:09.462Z,-5.01
2024-01-17T00:41:07.012Z,-5.47
2024-01-17T00:44:05.858Z,-5.33
2024-01-17T00:47:02.756Z,-5.31
2024-01-17T00:49:59.892Z,-5.30
2024-01-17T00:52:56.753Z,-5.12
2024-01-17T00:55:53.639Z,-5.29
2024-01-17T00:58:50.534Z,-5.36
2024-01-17T01:01:47.385Z,-5.93
2024-01-17T01:04:44.266Z,-5.75
2024-01-17T01:07:41.270Z,-5.35
2024-01-17T01:10:38.133Z,-5.47
2024-01-17T01:13:35.234Z,-5.62
2024-01-17T01:16:32.168Z,-5.12
2024-01-17T01:19:29.049Z,-5.36
2024-01-17T01:22:26.101Z,-5.48
2024-01-17T01:25:23.026Z,-5.28
2024-01-17T01:28:20.139Z,-5.29
2024-01-17T01:31:17.093Z,-5.60
2024-01-17T01:34:17.231Z,-5.50
2024-01-17T01:37:14.460Z,-5.74
2024-01-17T01:40:12.073Z,-5.42
2024-01-17T01:43:23.287Z,-5.72
2024-01-17T01:46:30.495Z,-6.29
2024-01-17T01:49:27.843Z,-5.92
2024-01-17T01:52:25.741Z,-5.87
2024-01-17T01:55:22.646Z,-6.23
2024-01-17T01:58:20.551Z,-6.19
2024-01-17T02:01:18.952Z,-5.88
2024-01-17T02:04:16.909Z,-5.36
2024-01-17T02:07:15.725Z,-5.39
2024-01-17T02:10:12.730Z,-5.74
2024-01-17T02:13:09.781Z,-6.15
2024-01-17T02:16:07.269Z,-6.13
2024-01-17T02:19:04.254Z,-5.53
2024-01-17T02:22:01.117Z,-5.67
2024-01-17T02:25:02.956Z,-5.95
2024-01-17T02:27:59.813Z,-6.73
2024-01-17T02:30:58.010Z,-6.71
2024-01-17T02:33:55.201Z,-6.42
2024-01-17T02:36:52.169Z,-5.60
2024-01-17T02:39:49.022Z,-6.24
2024-01-17T02:42:45.984Z,-5.46
2024-01-17T02:45:42.933Z,-5.83
2024-01-17T02:48:40.100Z,-5.91
2024-01-17T02:51:37.137Z,-5.23
2024-01-17T02:54:34.101Z,-5.85
2024-01-17T02:57:30.976Z,-5.77
2024-01-17T03:00:27.890Z,-5.40
2024-01-17T03:03:24.843Z,-5.59
2024-01-17T03:06:21.850Z,-5.69
2024-01-17T03:09:18.997Z,-5.65
2024-01-17T03:12:16.767Z,-6.25
2024-01-17T03:15:14.033Z,-5.74
2024-01-17T03:18:14.938Z,-5.83
2024-01-17T03:21:14.537Z,-5.74
2024-01-17T03:24:11.485Z,-5.83
2024-01-17T03:27:08.689Z,-5.48
2024-01-17T03:30:08.308Z,-5.87
2024-01-17T03:33:06.277Z,-4.98
2024-01-17T03:36:03.409Z,-4.77
2024-01-17T03:39:00.368Z,-4.72
2024-01-17T03:41:57.258Z,-5.63
2024-01-17T03:44:54.142Z,-4.65
2024-01-17T03:47:51.152Z,-4.52
2024-01-17T03:50:48.171Z,-4.65
2024-01-17T03:53:47.539Z,-4.51
2024-01-17T03:56:44.553Z,-4.90
2024-01-17T03:59:45.344Z,-4.83
2024-01-17T04:02:42.396Z,-4.63
2024-01-17T04:05:39.694Z,-4.92
2024-01-17T04:08:36.806Z,-4.82
2024-01-17T04:11:34.685Z,-4.73
2024-01-17T04:14:31.661Z,-4.58
2024-01-17T04:17:28.733Z,-4.38
2024-01-17T04:20:25.741Z,-4.41
2024-01-17T04:23:22.622Z,-5.85
2024-01-17T04:26:25.151Z,-5.58
2024-01-17T04:29:22.872Z,-5.13
2024-01-17T04:32:19.735Z,-5.18
2024-01-17T04:35:22.902Z,-5.03
2024-01-17T04:38:19.765Z,-4.98
2024-01-17T04:41:17.670Z,-5.03
2024-01-17T04:44:14.536Z,-4.63
2024-01-17T04:47:12.571Z,-4.35
2024-01-17T04:50:09.935Z,-4.40
2024-01-17T04:53:06.952Z,-4.98
2024-01-17T04:56:06.919Z,-4.59
2024-01-17T04:59:03.792Z,-4.31
2024-01-17T05:02:00.670Z,-4.09
2024-01-17T05:04:57.623Z,-4.04
2024-01-17T05:07:54.538Z,-4.51
2024-01-17T05:10:51.480Z,-4.59
2024-01-17T05:13:48.343Z,-4.35
2024-01-17T05:16:45.257Z,-4.32
2024-01-17T05:19:42.524Z,-4.50
2024-01-17T05:22:41.141Z,-4.34
2024-01-17T05:25:38.101Z,-4.96
2024-01-17T05:28:34.984Z,-4.84
2024-01-17T05:31:32.963Z,-4.41
2024-01-17T05:34:30.399Z,-3.74
2024-01-17T05:37:27.288Z,-3.73
2024-01-17T05:40:24.190Z,-4.27
2024-01-17T05:43:23.387Z,-3.97
2024-01-17T05:46:20.266Z,-4.53
2024-01-17T05:49:17.147Z,-4.55
2024-01-17T05:52:14.018Z,-4.29
2024-01-17T05:55:12.283Z,-4.58
2024-01-17T05:58:10.467Z,-4.28
2024-01-17T06:01:07.404Z,-4.50
2024-01-17T06:04:04.573Z,-4.27
2024-01-17T06:07:01.656Z,-4.43
2024-01-17T06:09:58.882Z,-4.85
2024-01-17T06:12:55.759Z,-4.36
2024-01-17T06:15:52.662Z,-4.71
2024-01-17T06:18:49.788Z,-4.46
2024-01-17T06:21:46.828Z,-4.40
2024-01-17T06:24:43.666Z,-4.56
2024-01-17T06:27:40.565Z,-4.78
2024-01-17T06:30:37.550Z,-4.88
2024-01-17T06:33:34.641Z,-5.00
2024-01-17T06:36:31.652Z,-5.18
2024-01-17T06:39:28.772Z,-5.15
2024-01-17T06:42:25.722Z,-4.67
2024-01-17T06:45:22.758Z,-4.71
2024-01-17T06:48:21.043Z,-4.87
2024-01-17T06:51:18.039Z,-4.83
2024-01-17T06:54:15.521Z,-4.97
2024-01-17T06:57:12.584Z,-4.30
2024-01-17T07:00:10.212Z,-4.43
2024-01-17T07:03:07.183Z,-4.42
2024-01-17T07:06:06.301Z,-4.14
2024-01-17T07:09:03.427Z,-4.48
2024-01-17T07:12:02.663Z,-3.99
2024-01-17T07:15:00.638Z,-3.81
2024-01-17T07:17:57.684Z,-3.64
2024-01-17T07:20:55.523Z,-3.25
2024-01-17T07:23:53.275Z,-3.65
2024-01-17T07:26:50.309Z,-3.62
2024-01-17T07:29:47.312Z,-3.27
2024-01-17T07:32:44.281Z,-3.50
2024-01-17T07:35:41.425Z,-3.50
2024-01-17T07:38:38.363Z,-2.89
2024-01-17T07:41:35.313Z,-2.83
2024-01-17T07:44:33.961Z,-2.76
2024-01-17T07:47:31.003Z,-3.00
2024-01-17T07:50:28.021Z,-2.91
2024-01-17T07:53:28.355Z,-2.90
2024-01-17T07:56:25.448Z,-2.75
2024-01-17T07:59:22.349Z,-2.72
2024-01-17T08:02:19.227Z,-2.65
2024-01-17T08:05:16.129Z,-2.61
2024-01-17T08:08:13.062Z,-2.52
2024-01-17T08:11:09.922Z,-2.51
2024-01-17T08:14:06.784Z,-1.66
2024-01-17T08:17:03.786Z,-1.79
2024-01-17T08:20:00.794Z,-1.89
2024-01-17T08:22:57.756Z,-1.83
2024-01-17T08:25:54.698Z,-1.65
2024-01-17T08:28:51.670Z,-2.08
2024-01-17T08:31:48.601Z,-2.20
2024-01-17T08:34:45.494Z,-1.92
2024-01-17T08:37:42.566Z,-1.79
2024-01-17T08:40:39.436Z,-2.19
2024-01-17T08:43:36.355Z,-1.70
2024-01-17T08:46:33.314Z,-1.62
2024-01-17T08:49:30.549Z,-1.98
2024-01-17T08:52:28.294Z,-1.94
2024-01-17T08:55:25.220Z,-1.64
2024-01-17T08:58:22.153Z,-1.52
2024-01-17T09:01:20.076Z,-1.70
2024-01-17T09:04:17.834Z,-1.33
2024-01-17T09:07:14.809Z,-1.16
2024-01-17T09:10:14.328Z,-1.54
2024-01-17T09:13:14.665Z,-1.89
2024-01-17T09:16:11.557Z,-1.82
2024-01-17T09:19:08.634Z,-1.44
2024-01-17T09:22:05.666Z,-1.35
2024-01-17T09:25:03.870Z,-1.26
2024-01-17T09:28:01.308Z,-1.08
2024-01-17T09:30:58.234Z,-0.62
2024-01-17T09:33:55.355Z,-0.81
2024-01-17T09:36:53.462Z,-0.86
2024-01-17T09:39:50.383Z,-1.28
2024-01-17T09:42:47.856Z,-0.85
2024-01-17T09:45:47.554Z,-0.82
2024-01-17T09:48:45.057Z,-1.38
2024-01-17T09:51:42.408Z,-1.20
2024-01-17T09:54:44.151Z,-0.66
2024-01-17T09:57:52.065Z,-0.11
2024-01-17T10:00:51.530Z,0.08
2024-01-17T10:03:50.083Z,0.00
2024-01-17T10:06:50.028Z,-0.95
2024-01-17T10:09:47.385Z,-0.10
2024-01-17T10:12:44.270Z,-0.11
2024-01-17T10:15:47.791Z,-0.01
2024-01-17T10:18:44.815Z,-0.17
2024-01-17T10:21:41.786Z,-0.34
2024-01-17T10:24:40.028Z,0.06
2024-01-17T10:27:36.993Z,0.21
2024-01-17T10:30:34.345Z,0.37
2024-01-17T10:33:31.486Z,0.27
2024-01-17T10:36:28.700Z,0.03
2024-01-17T10:39:30.153Z,-0.74
2024-01-17T10:42:27.041Z,-0.61
2024-01-17T10:45:24.806Z,-0.01
2024-01-17T10:48:23.968Z,-0.27
2024-01-17T10:51:24.095Z,0.15
2024-01-17T10:54:30.535Z,0.15
2024-01-17T10:57:29.054Z,0.63
2024-01-17T11:00:32.521Z,0.18
2024-01-17T11:03:33.728Z,-0.08
2024-01-17T11:06:31.149Z,0.23
2024-01-17T11:09:30.301Z,-0.01
2024-01-17T11:12:32.389Z,0.14
2024-01-17T11:15:30.781Z,-0.10
2024-01-17T11:18:31.063Z,0.21
2024-01-17T11:21:28.452Z,0.25
2024-01-17T11:24:37.164Z,0.17
2024-01-17T11:28:02.365Z,0.37
2024-01-17T11:31:34.193Z,0.49
2024-01-17T11:34:31.589Z,0.17
2024-01-17T11:37:35.837Z,0.14
2024-01-17T11:40:33.494Z,0.13
2024-01-17T11:43:32.865Z,0.37
2024-01-17T11:46:30.982Z,0.40
2024-01-17T11:49:43.078Z,0.18
2024-01-17T11:52:42.021Z,0.74
2024-01-17T11:55:50.699Z,0.48
2024-01-17T11:58:53.008Z,0.19
2024-01-17T12:01:52.481Z,0.98
2024-01-17T12:04:49.678Z,0.81
2024-01-17T12:07:51.209Z,0.77
2024-01-17T12:10:57.149Z,0.84
2024-01-17T12:13:55.113Z,0.52
2024-01-17T12:16:52.101Z,0.76
2024-01-17T12:19:49.022Z,1.22
2024-01-17T12:22:52.717Z,1.31
2024-01-17T12:25:51.138Z,0.65
2024-01-17T12:28:48.987Z,1.27
2024-01-17T12:31:45.950Z,1.17
2024-01-17T12:34:43.304Z,1.46
2024-01-17T12:37:40.278Z,1.29
2024-01-17T12:40:38.040Z,1.41
2024-01-17T12:43:36.994Z,1.17
2024-01-17T12:46:34.404Z,1.49
2024-01-17T12:49:31.395Z,1.48
2024-01-17T12:52:28.355Z,0.81
2024-01-17T12:55:26.066Z,0.60
2024-01-17T12:58:23.377Z,0.76
2024-01-17T13:01:24.220Z,0.86
2024-01-17T13:04:21.315Z,0.47
2024-01-17T13:07:27.661Z,0.74
2024-01-17T13:10:25.007Z,0.81
2024-01-17T13:13:23.334Z,0.50
2024-01-17T13:16:20.430Z,0.63
2024-01-17T13:19:18.367Z,0.30
2024-01-17T13:22:15.345Z,0.61
2024-01-17T13:25:12.213Z,0.78
2024-01-17T13:28:11.378Z,0.97
2024-01-17T13:31:09.551Z,0.65
2024-01-17T13:34:06.711Z,0.79
2024-01-17T13:37:03.901Z,0.72
2024-01-17T13:40:00.743Z,1.18
2024-01-17T13:42:58.015Z,0.94
2024-01-17T13:45:55.031Z,0.46
2024-01-17T13:48:52.923Z,0.88
2024-01-17T13:51:54.048Z,0.50
2024-01-17T13:54:51.699Z,0.92
2024-01-17T13:57:48.716Z,1.09
2024-01-17T14:00:45.707Z,0.78
2024-01-17T14:03:42.628Z,0.78
2024-01-17T14:06:39.817Z,1.04
2024-01-17T14:09:40.095Z,1.10
2024-01-17T14:12:39.532Z,0.85
2024-01-17T14:15:36.676Z,0.97
2024-01-17T14:18:33.701Z,0.62
2024-01-17T14:21:31.017Z,1.02
2024-01-17T14:24:28.292Z,1.81
2024-01-17T14:27:28.864Z,1.09
2024-01-17T14:30:26.355Z,1.15
2024-01-17T14:33:24.010Z,1.26
2024-01-17T14:36:20.971Z,1.41
2024-01-17T14:39:21.895Z,1.11
2024-01-17T14:42:24.116Z,1.89
2024-01-17T14:45:21.070Z,1.62
2024-01-17T14:48:18.054Z,1.86
2024-01-17T14:51:15.027Z,1.74
2024-01-17T14:54:11.928Z,1.76
2024-01-17T14:57:08.882Z,1.76
2024-01-17T15:00:08.177Z,1.90
2024-01-17T15:03:05.457Z,1.63
2024-01-17T15:06:04.564Z,2.07
2024-01-17T15:09:03.784Z,1.71
2024-01-17T15:12:00.702Z,2.19
2024-01-17T15:14:57.739Z,1.79
2024-01-17T15:17:54.753Z,1.97
2024-01-17T15:20:51.726Z,2.63
2024-01-17T15:23:48.980Z,2.02
2024-01-17T15:26:46.259Z,2.51
2024-01-17T15:29:46.029Z,1.73
2024-01-17T15:32:43.187Z,2.22
2024-01-17T15:35:40.385Z,2.50
2024-01-17T15:38:43.024Z,2.54
2024-01-17T15:41:42.026Z,2.33
2024-01-17T15:44:41.209Z,2.34
2024-01-17T15:47:38.895Z,2.71
2024-01-17T15:50:38.798Z,2.09
2024-01-17T15:53:36.777Z,2.84
2024-01-17T15:56:36.277Z,2.42
2024-01-17T15:59:33.867Z,2.19
2024-01-17T16:02:30.742Z,2.39
2024-01-17T16:05:27.996Z,2.62
2024-01-17T16:08:24.870Z,2.23
2024-01-17T16:11:22.094Z,3.06
2024-01-17T16:14:19.225Z,3.03
2024-01-17T16:17:16.125Z,2.31
2024-01-17T16:20:15.167Z,2.60
2024-01-17T16:23:14.450Z,2.82
2024-01-17T16:26:12.146Z,2.36
2024-01-17T16:29:09.014Z,2.79
2024-01-17T16:32:06.113Z,2.98
2024-01-17T16:35:04.655Z,2.62
2024-01-17T16:38:01.691Z,2.40
2024-01-17T16:40:58.657Z,3.35
2024-01-17T16:43:55.529Z,2.92
2024-01-17T16:46:52.387Z,2.99
2024-01-17T16:49:49.317Z,2.72
2024-01-17T16:52:46.340Z,3.22
2024-01-17T16:55:43.227Z,2.64
2024-01-17T16:58:40.152Z,3.00
2024-01-17T17:01:37.932Z,2.97
2024-01-17T17:04:35.000Z,2.71
2024-01-17T17:07:32.481Z,3.01
2024-01-17T17:10:30.336Z,3.01
2024-01-17T17:13:28.011Z,2.92
2024-01-17T17:16:26.204Z,2.85
2024-01-17T17:19:23.191Z,2.95
2024-01-17T17:22:30.266Z,2.91
2024-01-17T17:25:33.990Z,3.28
2024-01-17T17:28:35.194Z,3.26
2024-01-17T17:31:32.072Z,3.24
2024-01-17T17:34:29.131Z,2.93
2024-01-17T17:37:27.244Z,2.98
2024-01-17T17:40:24.774Z,3.32
2024-01-17T17:43:22.388Z,3.14
2024-01-17T17:46:19.352Z,2.38
2024-01-17T17:49:16.935Z,2.75
2024-01-17T17:52:14.085Z,2.50
2024-01-17T17:55:10.991Z,2.83
2024-01-17T17:58:07.870Z,2.93
2024-01-17T18:01:05.024Z,3.10
2024-01-17T18:04:02.362Z,3.22
2024-01-17T18:06:59.303Z,3.35
2024-01-17T18:09:57.429Z,3.07
2024-01-17T18:12:54.267Z,3.11
2024-01-17T18:15:51.133Z,3.47
2024-01-17T18:18:48.025Z,3.32
2024-01-17T18:21:46.085Z,2.83
2024-01-17T18:24:43.600Z,3.02
2024-01-17T18:27:40.549Z,3.36
2024-01-17T18:30:37.507Z,3.22
2024-01-17T18:33:34.671Z,3.43
2024-01-17T18:36:31.874Z,3.43
2024-01-17T18:39:28.826Z,3.46
2024-01-17T18:42:25.845Z,2.91
2024-01-17T18:45:22.924Z,3.27
2024-01-17T18:48:20.094Z,3.07
2024-01-17T18:51:17.136Z,3.66
2024-01-17T18:54:14.018Z,3.65
2024-01-17T18:57:11.390Z,3.03
2024-01-17T19:00:09.144Z,3.33
2024-01-17T19:03:07.051Z,3.43
2024-01-17T19:06:04.969Z,3.37
2024-01-17T19:09:02.641Z,3.17
2024-01-17T19:11:59.673Z,3.36
2024-01-17T19:14:56.660Z,3.21
2024-01-17T19:17:53.604Z,2.82
2024-01-17T19:20:53.777Z,3.14
2024-01-17T19:23:50.888Z,3.02
2024-01-17T19:26:48.267Z,3.07
2024-01-17T19:29:45.262Z,2.77
2024-01-17T19:32:42.283Z,2.54
2024-01-17T19:35:39.340Z,3.17
2024-01-17T19:38:36.276Z,3.21
2024-01-17T19:41:35.147Z,3.50
2024-01-17T19:44:34.115Z,3.37
2024-01-17T19:47:31.078Z,3.13
2024-01-17T19:50:28.085Z,3.00
2024-01-17T19:53:25.561Z,2.87
2024-01-17T19:56:22.518Z,2.88
2024-01-17T19:59:19.362Z,3.04
2024-01-17T20:02:16.624Z,2.83
2024-01-17T20:05:13.557Z,2.82
2024-01-17T20:08:10.545Z,3.01
2024-01-17T20:11:08.069Z,2.88
2024-01-17T20:14:04.923Z,2.73
2024-01-17T20:17:01.831Z,2.95
2024-01-17T20:19:58.831Z,3.20
2024-01-17T20:22:55.783Z,2.78
2024-01-17T20:25:52.674Z,2.98
2024-01-17T20:28:49.574Z,3.04
2024-01-17T20:31:47.217Z,3.31
2024-01-17T20:34:45.929Z,2.90
2024-01-17T20:37:42.864Z,3.28
2024-01-17T20:40:39.757Z,3.26
2024-01-17T20:43:36.618Z,2.90
2024-01-17T20:46:33.797Z,2.83
2024-01-17T20:49:31.464Z,2.95
2024-01-17T20:52:30.096Z,3.00
2024-01-17T20:55:27.455Z,3.06
2024-01-17T20:58:25.130Z,3.24
2024-01-17T21:01:22.045Z,3.47
2024-01-17T21:04:19.035Z,3.61
2024-01-17T21:07:16.048Z,2.74
2024-01-17T21:10:13.033Z,2.92
2024-01-17T21:13:09.942Z,3.28
2024-01-17T21:16:10.890Z,2.95
2024-01-17T21:19:08.881Z,2.97
2024-01-17T21:22:07.603Z,3.09
2024-01-17T21:25:04.946Z,3.14
2024-01-17T21:28:03.161Z,2.71
2024-01-17T21:31:00.870Z,2.96
2024-01-17T21:33:57.974Z,2.97
2024-01-17T21:36:54.897Z,3.27
2024-01-17T21:39:53.175Z,3.13
2024-01-17T21:42:50.071Z,3.11
2024-01-17T21:45:46.938Z,3.07
2024-01-17T21:48:44.750Z,3.21
2024-01-17T21:51:41.893Z,2.98
2024-01-17T21:54:38.843Z,2.97
2024-01-17T21:57:35.766Z,3.08
2024-01-17T22:00:32.643Z,2.76
2024-01-17T22:03:29.823Z,3.19
2024-01-17T22:06:29.530Z,3.03
2024-01-17T22:09:26.491Z,3.04
2024-01-17T22:12:23.438Z,3.10
2024-01-17T22:15:20.430Z,2.88
2024-01-17T22:18:17.522Z,3.20
2024-01-17T22:21:14.485Z,3.49
2024-01-17T22:24:11.401Z,3.48
2024-01-17T22:27:08.292Z,3.49
2024-01-17T22:30:05.992Z,3.40
2024-01-17T22:33:03.046Z,3.53
2024-01-17T22:36:00.047Z,3.48
2024-01-17T22:38:57.900Z,3.12
2024-01-17T22:41:54.880Z,3.20
2024-01-17T22:44:51.865Z,3.15
2024-01-17T22:47:48.800Z,3.15
2024-01-17T22:50:45.674Z,3.25
2024-01-17T22:53:42.801Z,3.13
2024-01-17T22:56:39.663Z,3.20
2024-01-17T22:59:37.464Z,3.08
2024-01-17T23:02:35.119Z,2.98
2024-01-17T23:05:32.111Z,3.09
2024-01-17T23:08:29.019Z,3.39
2024-01-17T23:11:26.761Z,3.30
2024-01-17T23:14:23.673Z,3.22
2024-01-17T23:17:20.662Z,3.12
2024-01-17T23:20:17.558Z,3.26
2024-01-17T23:23:14.418Z,3.31
2024-01-17T23:26:11.332Z,3.26
2024-01-17T23:29:08.181Z,3.02
2024-01-17T23:32:05.214Z,2.97
2024-01-17T23:35:05.511Z,2.76
2024-01-17T23:38:02.454Z,2.89
2024-01-17T23:40:59.322Z,3.17
2024-01-17T23:43:57.035Z,2.84
2024-01-17T23:46:54.054Z,3.30
2024-01-17T23:49:51.223Z,2.88
2024-01-17T23:52:48.112Z,3.46
2024-01-17T23:55:44.988Z,3.20
2024-01-17T23:58:42.302Z,3.12
